createdAt,value
2023-04-17T00:01:00.992Z,6.80
2023-04-17T00:03:27.660Z,7.93
2023-04-17T00:05:54.275Z,8.40
2023-04-17T00:08:21.277Z,8.03
2023-04-17T00:10:53.989Z,8.47
2023-04-17T00:13:31.207Z,7.97
2023-04-17T00:15:57.702Z,8.20
2023-04-17T00:18:24.259Z,8.40
2023-04-17T00:20:50.803Z,8.40
2023-04-17T00:23:17.338Z,7.73
2023-04-17T00:25:43.899Z,9.38
2023-04-17T00:28:10.696Z,7.97
2023-04-17T00:30:37.231Z,7.43
2023-04-17T00:33:03.802Z,8.10
2023-04-17T00:35:30.368Z,8.23
2023-04-17T00:37:56.900Z,8.03
2023-04-17T00:40:23.442Z,7.33
2023-04-17T00:42:53.152Z,7.40
2023-04-17T00:45:20.864Z,7.10
2023-04-17T00:47:48.669Z,7.43
2023-04-17T00:50:15.463Z,7.68
2023-04-17T00:52:42.258Z,6.83
2023-04-17T00:55:09.076Z,6.83
2023-04-17T00:57:36.007Z,6.53
2023-04-17T01:00:02.747Z,6.23
2023-04-17T01:02:30.056Z,6.73
2023-04-17T01:04:57.199Z,5.37
2023-04-17T01:07:24.277Z,5.60
2023-04-17T01:09:50.953Z,5.53
2023-04-17T01:12:24.386Z,5.50
2023-04-17T01:14:52.426Z,5.27
2023-04-17T01:17:19.699Z,5.47
2023-04-17T01:19:46.838Z,5.40
2023-04-17T01:22:13.646Z,4.77
2023-04-17T01:24:40.161Z,4.73
2023-04-17T01:27:07.796Z,4.63
2023-04-17T01:29:35.460Z,4.80
2023-04-17T01:32:02.126Z,4.77
2023-04-17T01:34:29.068Z,5.00
2023-04-17T01:36:55.569Z,4.40
2023-04-17T01:39:22.125Z,5.13
2023-04-17T01:41:48.622Z,4.93
2023-04-17T01:44:15.189Z,4.97
2023-04-17T01:46:41.857Z,5.37
2023-04-17T01:49:08.388Z,5.27
2023-04-17T01:51:34.999Z,4.80
2023-04-17T01:54:01.499Z,4.97
2023-04-17T01:56:29.295Z,5.03
2023-04-17T01:58:55.966Z,5.03
2023-04-17T02:01:22.622Z,4.70
2023-04-17T02:03:49.444Z,4.73
2023-04-17T02:06:16.408Z,4.87
2023-04-17T02:08:44.190Z,4.97
2023-04-17T02:11:10.748Z,3.97
2023-04-17T02:13:37.230Z,4.47
2023-04-17T02:16:03.902Z,3.93
2023-04-17T02:18:30.504Z,4.10
2023-04-17T02:20:59.969Z,3.63
2023-04-17T02:23:26.703Z,4.30
2023-04-17T02:25:53.224Z,3.67
2023-04-17T02:28:19.822Z,4.20
2023-04-17T02:30:46.335Z,3.60
2023-04-17T02:33:12.970Z,4.00
2023-04-17T02:35:39.632Z,3.53
2023-04-17T02:38:06.338Z,3.30
2023-04-17T02:40:33.925Z,3.47
2023-04-17T02:43:01.986Z,3.40
2023-04-17T02:45:29.396Z,3.47
2023-04-17T02:47:56.650Z,3.63
2023-04-17T02:50:24.092Z,3.70
2023-04-17T02:53:11.771Z,3.90
2023-04-17T02:55:38.312Z,3.30
2023-04-17T02:58:04.833Z,3.77
2023-04-17T03:00:31.387Z,3.60
2023-04-17T03:02:58.042Z,3.30
2023-04-17T03:05:24.750Z,3.30
2023-04-17T03:07:53.591Z,3.50
2023-04-17T03:10:20.383Z,3.30
2023-04-17T03:12:46.988Z,3.03
2023-04-17T03:15:13.578Z,3.50
2023-04-17T03:17:40.439Z,3.30
2023-04-17T03:20:08.095Z,3.10
2023-04-17T03:22:34.781Z,2.93
2023-04-17T03:25:01.880Z,2.90
2023-04-17T03:27:35.686Z,3.20
2023-04-17T03:30:03.289Z,3.13
2023-04-17T03:32:31.106Z,2.90
2023-04-17T03:34:57.631Z,2.90
2023-04-17T03:37:24.211Z,3.13
2023-04-17T03:39:51.027Z,3.07
2023-04-17T03:42:17.657Z,3.17
2023-04-17T03:44:44.228Z,3.50
2023-04-17T03:47:11.424Z,3.17
2023-04-17T03:49:41.188Z,3.10
2023-04-17T03:52:07.784Z,2.60
2023-04-17T03:54:35.789Z,3.30
2023-04-17T03:57:04.802Z,3.17
2023-04-17T03:59:32.207Z,3.60
2023-04-17T04:01:58.878Z,3.53
2023-04-17T04:04:27.823Z,3.20
2023-04-17T04:07:04.500Z,3.13
2023-04-17T04:09:31.235Z,4.10
2023-04-17T04:11:58.722Z,3.17
2023-04-17T04:14:26.118Z,3.40
2023-04-17T04:16:52.984Z,3.90
2023-04-17T04:19:20.405Z,3.70
2023-04-17T04:21:47.433Z,3.93
2023-04-17T04:24:14.842Z,3.83
2023-04-17T04:26:43.160Z,3.60
2023-04-17T04:29:11.902Z,4.27
2023-04-17T04:31:53.661Z,3.77
2023-04-17T04:34:25.841Z,4.07
2023-04-17T04:36:52.603Z,4.33
2023-04-17T04:39:30.022Z,4.23
2023-04-17T04:42:05.806Z,4.40
2023-04-17T04:44:42.493Z,4.17
2023-04-17T04:47:09.556Z,4.10
2023-04-17T04:49:36.575Z,4.73
2023-04-17T04:52:03.125Z,4.00
2023-04-17T04:54:32.922Z,3.97
2023-04-17T04:57:01.442Z,4.33
2023-04-17T04:59:28.433Z,4.40
2023-04-17T05:02:13.841Z,4.10
2023-04-17T05:04:41.344Z,7.23
2023-04-17T05:07:08.061Z,5.83
2023-04-17T05:09:36.964Z,4.83
2023-04-17T05:12:08.551Z,4.97
2023-04-17T05:14:35.723Z,4.87
2023-04-17T05:17:02.722Z,4.17
2023-04-17T05:19:30.707Z,4.53
2023-04-17T05:22:01.486Z,4.63
2023-04-17T05:24:31.103Z,4.37
2023-04-17T05:26:58.255Z,4.37
2023-04-17T05:29:25.273Z,4.17
2023-04-17T05:31:53.306Z,4.63
2023-04-17T05:34:46.662Z,4.63
2023-04-17T05:37:14.065Z,4.20
2023-04-17T05:39:40.597Z,4.50
2023-04-17T05:42:07.995Z,4.37
2023-04-17T05:44:34.566Z,4.87
2023-04-17T05:47:01.183Z,5.30
2023-04-17T05:49:27.768Z,4.97
2023-04-17T05:51:54.379Z,4.90
2023-04-17T05:54:20.953Z,4.67
2023-04-17T05:56:50.005Z,4.57
2023-04-17T05:59:17.159Z,5.03
2023-04-17T06:01:43.870Z,5.27
2023-04-17T06:04:10.770Z,4.87
2023-04-17T06:06:37.494Z,5.13
2023-04-17T06:09:05.813Z,5.60
2023-04-17T06:11:32.559Z,6.50
2023-04-17T06:13:59.106Z,23.80
2023-04-17T06:16:26.618Z,34.63
2023-04-17T06:18:53.213Z,51.53
2023-04-17T06:21:21.185Z,7.67
2023-04-17T06:23:48.154Z,5.93
2023-04-17T06:26:16.734Z,6.30
2023-04-17T06:28:43.271Z,6.40
2023-04-17T06:31:10.257Z,5.73
2023-04-17T06:33:36.850Z,6.07
2023-04-17T06:36:03.677Z,6.03
2023-04-17T06:38:40.119Z,5.83
2023-04-17T06:41:07.563Z,5.60
2023-04-17T06:43:36.118Z,6.50
2023-04-17T06:46:12.349Z,5.83
2023-04-17T06:48:38.955Z,6.50
2023-04-17T06:51:05.560Z,6.10
2023-04-17T06:53:32.418Z,6.13
2023-04-17T06:55:58.912Z,8.57
2023-04-17T06:58:25.472Z,6.33
2023-04-17T07:00:52.041Z,6.80
2023-04-17T07:03:18.733Z,9.13
2023-04-17T07:05:45.415Z,9.60
2023-04-17T07:08:11.942Z,8.23
2023-04-17T07:10:38.463Z,7.97
2023-04-17T07:13:05.010Z,8.03
2023-04-17T07:15:31.608Z,8.83
2023-04-17T07:17:58.259Z,7.93
2023-04-17T07:20:24.899Z,8.47
2023-04-17T07:22:51.464Z,8.00
2023-04-17T07:25:18.115Z,8.20
2023-04-17T07:27:44.636Z,7.27
2023-04-17T07:30:11.507Z,9.93
2023-04-17T07:32:38.186Z,9.30
2023-04-17T07:35:05.023Z,7.33
2023-04-17T07:37:31.672Z,7.37
2023-04-17T07:39:58.193Z,9.67
2023-04-17T07:42:24.680Z,8.77
2023-04-17T07:44:51.253Z,8.50
2023-04-17T07:47:17.824Z,14.30
2023-04-17T07:49:48.805Z,12.80
2023-04-17T07:52:17.726Z,17.40
2023-04-17T07:54:44.400Z,10.97
2023-04-17T07:57:11.218Z,25.77
2023-04-17T07:59:37.746Z,16.43
2023-04-17T08:02:04.299Z,9.60
2023-04-17T08:04:31.077Z,10.23
2023-04-17T08:06:57.811Z,9.67
2023-04-17T08:09:24.378Z,9.43
2023-04-17T08:11:57.580Z,8.53
2023-04-17T08:14:25.154Z,9.23
2023-04-17T08:16:51.908Z,8.87
2023-04-17T08:19:18.753Z,9.53
2023-04-17T08:21:47.264Z,9.00
2023-04-17T08:24:13.834Z,8.80
2023-04-17T08:26:40.737Z,9.03
2023-04-17T08:29:08.213Z,8.60
2023-04-17T08:31:36.878Z,9.37
2023-04-17T08:34:13.684Z,8.87
2023-04-17T08:36:41.726Z,9.50
2023-04-17T08:39:10.204Z,8.83
2023-04-17T08:41:41.138Z,9.97
2023-04-17T08:44:07.660Z,9.73
2023-04-17T08:46:34.670Z,9.80
2023-04-17T08:49:02.957Z,10.03
2023-04-17T08:51:29.509Z,9.17
2023-04-17T08:53:56.089Z,11.00
2023-04-17T08:56:22.828Z,9.67
2023-04-17T08:58:49.405Z,9.70
2023-04-17T09:01:16.692Z,9.53
2023-04-17T09:03:44.032Z,9.00
2023-04-17T09:06:11.361Z,9.90
2023-04-17T09:08:38.614Z,10.83
2023-04-17T09:11:05.703Z,10.63
2023-04-17T09:13:38.954Z,10.70
2023-04-17T09:16:06.868Z,11.10
2023-04-17T09:18:34.290Z,11.20
2023-04-17T09:21:01.553Z,10.20
2023-04-17T09:23:29.783Z,11.13
2023-04-17T09:26:09.922Z,11.30
2023-04-17T09:28:39.065Z,11.20
2023-04-17T09:31:24.865Z,11.93
2023-04-17T09:34:04.536Z,11.40
2023-04-17T09:36:32.084Z,11.03
2023-04-17T09:39:02.314Z,11.73
2023-04-17T09:41:29.972Z,10.97
2023-04-17T09:44:01.017Z,11.63
2023-04-17T09:46:45.659Z,14.37
2023-04-17T09:49:33.892Z,10.40
2023-04-17T09:52:01.079Z,11.60
2023-04-17T09:54:31.321Z,11.23
2023-04-17T09:56:58.499Z,12.93
2023-04-17T09:59:25.793Z,13.60
2023-04-17T10:01:54.218Z,12.07
2023-04-17T10:04:21.493Z,12.23
2023-04-17T10:06:49.480Z,11.77
2023-04-17T10:09:16.001Z,11.37
2023-04-17T10:11:43.614Z,11.13
2023-04-17T10:14:19.430Z,11.60
2023-04-17T10:16:47.242Z,11.97
2023-04-17T10:19:24.215Z,12.07
2023-04-17T10:22:10.035Z,12.63
2023-04-17T10:24:36.591Z,11.80
2023-04-17T10:27:23.066Z,12.90
2023-04-17T10:29:56.977Z,12.80
2023-04-17T10:32:30.432Z,13.90
2023-04-17T10:35:00.824Z,11.60
2023-04-17T10:37:46.408Z,12.93
2023-04-17T10:40:17.816Z,13.17
2023-04-17T10:43:01.245Z,11.93
2023-04-17T10:45:47.824Z,11.73
2023-04-17T10:48:21.354Z,11.43
2023-04-17T10:50:48.031Z,11.57
2023-04-17T10:53:33.150Z,11.67
2023-04-17T10:55:59.735Z,12.80
2023-04-17T10:58:31.728Z,12.70
2023-04-17T11:01:02.425Z,11.43
2023-04-17T11:03:29.973Z,13.03
2023-04-17T11:05:58.912Z,12.17
2023-04-17T11:08:25.557Z,12.93
2023-04-17T11:10:53.027Z,13.03
2023-04-17T11:13:19.531Z,12.67
2023-04-17T11:15:46.089Z,12.63
2023-04-17T11:18:12.731Z,13.37
2023-04-17T11:20:39.429Z,11.80
2023-04-17T11:23:06.589Z,11.53
2023-04-17T11:25:34.389Z,12.27
2023-04-17T11:28:02.134Z,11.80
2023-04-17T11:30:33.461Z,12.43
2023-04-17T11:33:03.974Z,12.13
2023-04-17T11:35:32.052Z,42.57
2023-04-17T11:38:12.164Z,44.03
2023-04-17T11:40:43.401Z,21.93
2023-04-17T11:43:10.584Z,25.80
2023-04-17T11:45:37.672Z,15.20
2023-04-17T11:48:04.467Z,13.93
2023-04-17T11:50:32.099Z,14.23
2023-04-17T11:53:00.227Z,13.30
2023-04-17T11:55:33.441Z,14.03
2023-04-17T11:58:06.172Z,14.37
2023-04-17T12:00:33.251Z,11.13
2023-04-17T12:03:01.143Z,11.03
2023-04-17T12:05:28.911Z,11.27
2023-04-17T12:08:00.068Z,12.13
2023-04-17T12:10:36.099Z,9.90
2023-04-17T12:13:02.616Z,9.70
2023-04-17T12:15:29.159Z,9.23
2023-04-17T12:17:55.754Z,10.97
2023-04-17T12:20:23.164Z,14.30
2023-04-17T12:22:50.872Z,13.63
2023-04-17T12:25:17.451Z,8.90
2023-04-17T12:27:43.957Z,8.37
2023-04-17T12:30:10.970Z,7.87
2023-04-17T12:32:39.484Z,9.40
2023-04-17T12:35:06.304Z,11.27
2023-04-17T12:37:33.019Z,7.60
2023-04-17T12:39:59.536Z,8.20
2023-04-17T12:42:26.830Z,8.37
2023-04-17T12:44:54.761Z,9.50
2023-04-17T12:47:21.316Z,6.80
2023-04-17T12:49:47.875Z,7.33
2023-04-17T12:52:14.382Z,6.30
2023-04-17T12:54:41.071Z,6.20
2023-04-17T12:57:07.739Z,6.00
2023-04-17T12:59:34.299Z,4.87
2023-04-17T13:02:01.008Z,5.23
2023-04-17T13:04:27.677Z,5.07
2023-04-17T13:06:54.414Z,4.57
2023-04-17T13:09:21.104Z,5.63
2023-04-17T13:11:47.607Z,6.30
2023-04-17T13:14:15.351Z,10.57
2023-04-17T13:16:42.028Z,12.90
2023-04-17T13:19:08.701Z,9.70
2023-04-17T13:21:35.236Z,8.53
2023-04-17T13:24:01.821Z,9.63
2023-04-17T13:26:28.395Z,8.90
2023-04-17T13:28:54.943Z,7.40
2023-04-17T13:31:21.476Z,25.83
2023-04-17T13:33:49.081Z,10.23
2023-04-17T13:36:15.585Z,8.10
2023-04-17T13:38:42.148Z,7.63
2023-04-17T13:41:08.668Z,7.43
2023-04-17T13:43:35.347Z,9.23
2023-04-17T13:46:02.010Z,7.33
2023-04-17T13:48:28.526Z,7.90
2023-04-17T13:50:55.044Z,6.63
2023-04-17T13:53:21.554Z,7.30
2023-04-17T13:55:48.487Z,28.30
2023-04-17T13:58:15.116Z,8.27
2023-04-17T14:00:41.634Z,7.13
2023-04-17T14:03:08.461Z,6.77
2023-04-17T14:05:35.293Z,11.23
2023-04-17T14:08:01.863Z,8.17
2023-04-17T14:10:28.368Z,8.23
2023-04-17T14:12:55.073Z,24.80
2023-04-17T14:15:21.625Z,14.50
2023-04-17T14:17:48.167Z,47.40
2023-04-17T14:20:16.716Z,7.63
2023-04-17T14:22:43.272Z,7.67
2023-04-17T14:25:09.906Z,6.80
2023-04-17T14:27:36.383Z,6.77
2023-04-17T14:30:03.066Z,7.23
2023-04-17T14:32:29.636Z,6.80
2023-04-17T14:34:56.200Z,7.10
2023-04-17T14:37:22.801Z,6.67
2023-04-17T14:39:49.353Z,6.73
2023-04-17T14:42:15.928Z,6.43
2023-04-17T14:44:44.067Z,6.20
2023-04-17T14:47:11.132Z,6.40
2023-04-17T14:49:37.735Z,7.00
2023-04-17T14:52:04.467Z,6.27
2023-04-17T14:54:31.105Z,8.80
2023-04-17T14:57:01.500Z,9.97
2023-04-17T14:59:28.523Z,40.33
2023-04-17T15:01:55.213Z,25.23
2023-04-17T15:04:22.027Z,9.60
2023-04-17T15:06:49.257Z,58.03
2023-04-17T15:09:15.810Z,39.47
2023-04-17T15:11:42.405Z,24.67
2023-04-17T15:14:08.933Z,22.00
2023-04-17T15:16:35.535Z,14.47
2023-04-17T15:19:02.100Z,10.70
2023-04-17T15:21:28.694Z,34.63
2023-04-17T15:23:55.227Z,27.17
2023-04-17T15:26:21.823Z,19.47
2023-04-17T15:28:48.401Z,16.50
2023-04-17T15:31:15.025Z,19.03
2023-04-17T15:33:41.665Z,19.97
2023-04-17T15:36:08.207Z,31.30
2023-04-17T15:38:34.728Z,15.13
2023-04-17T15:41:03.570Z,18.10
2023-04-17T15:43:30.512Z,23.63
2023-04-17T15:45:58.970Z,26.90
2023-04-17T15:48:25.624Z,11.07
2023-04-17T15:50:52.113Z,8.70
2023-04-17T15:53:18.687Z,18.73
2023-04-17T15:55:45.808Z,11.27
2023-04-17T15:58:12.408Z,14.63
2023-04-17T16:00:39.106Z,3.67
2023-04-17T16:03:24.482Z,5.83
2023-04-17T16:05:53.884Z,5.73
2023-04-17T16:08:49.421Z,6.07
2023-04-17T16:11:31.388Z,8.13
2023-04-17T16:14:39.198Z,20.77
2023-04-17T16:17:30.139Z,11.90
2023-04-17T16:20:06.675Z,4.33
2023-04-17T16:22:43.857Z,13.57
2023-04-17T16:25:12.381Z,13.73
2023-04-17T16:27:40.409Z,11.97
2023-04-17T16:30:08.101Z,6.57
2023-04-17T16:32:36.183Z,8.47
2023-04-17T16:35:03.381Z,9.80
2023-04-17T16:37:32.660Z,11.00
2023-04-17T16:40:05.272Z,9.13
2023-04-17T16:42:36.278Z,11.77
2023-04-17T16:45:10.315Z,9.07
2023-04-17T16:50:27.560Z,8.97
2023-04-17T16:53:25.295Z,9.03
2023-04-17T16:56:13.423Z,15.03
2023-04-17T16:58:40.804Z,13.70
2023-04-17T17:01:08.903Z,8.53
2023-04-17T17:03:49.946Z,8.70
2023-04-17T17:06:24.921Z,10.93
2023-04-17T17:08:54.541Z,12.37
2023-04-17T17:11:23.275Z,11.67
2023-04-17T17:13:54.936Z,16.30
2023-04-17T17:16:25.023Z,10.97
2023-04-17T17:19:04.851Z,12.87
2023-04-17T17:27:24.193Z,8.93
2023-04-17T17:30:16.884Z,9.77
2023-04-17T17:32:57.657Z,11.43
2023-04-17T17:35:41.712Z,11.67
2023-04-17T17:38:11.404Z,10.53
2023-04-17T17:40:42.819Z,10.60
2023-04-17T17:43:14.428Z,15.20
2023-04-17T17:45:43.703Z,14.77
2023-04-17T17:48:28.932Z,9.77
2023-04-17T17:51:10.779Z,15.37
2023-04-17T17:53:39.202Z,12.57
2023-04-17T17:56:07.864Z,13.13
2023-04-17T17:58:42.609Z,9.90
2023-04-17T18:01:10.964Z,10.60
2023-04-17T18:03:42.952Z,9.50
2023-04-17T18:06:18.583Z,10.23
2023-04-17T18:08:50.090Z,10.10
2023-04-17T18:11:30.804Z,10.93
2023-04-17T18:13:58.582Z,15.80
2023-04-17T18:16:26.916Z,24.67
2023-04-17T18:18:57.990Z,26.90
2023-04-17T18:21:36.112Z,24.90
2023-04-17T18:24:06.190Z,29.13
2023-04-17T18:26:37.061Z,18.43
2023-04-17T18:29:12.174Z,20.20
2023-04-17T18:31:40.677Z,18.95
2023-04-17T18:34:11.846Z,13.53
2023-04-17T18:36:46.718Z,13.30
2023-04-17T18:39:18.112Z,12.20
2023-04-17T18:41:48.833Z,12.77
2023-04-17T18:44:19.162Z,12.17
2023-04-17T18:46:46.947Z,13.10
2023-04-17T18:49:17.351Z,13.57
2023-04-17T18:51:48.117Z,14.53
2023-04-17T18:54:16.706Z,14.30
2023-04-17T18:56:50.976Z,13.60
2023-04-17T19:02:06.453Z,16.23
2023-04-17T19:04:36.827Z,15.60
2023-04-17T19:07:19.820Z,15.73
2023-04-17T19:09:50.333Z,19.00
2023-04-17T19:12:20.120Z,19.47
2023-04-17T19:14:55.466Z,17.87
2023-04-17T19:17:23.480Z,19.47
2023-04-17T19:19:53.381Z,18.23
2023-04-17T19:22:23.909Z,20.30
2023-04-17T19:24:53.669Z,18.60
2023-04-17T19:27:27.349Z,17.60
2023-04-17T19:29:59.525Z,21.57
2023-04-17T19:32:27.278Z,16.83
2023-04-17T19:34:56.652Z,16.87
2023-04-17T19:37:27.796Z,15.90
2023-04-17T19:39:58.326Z,17.20
2023-04-17T19:42:31.240Z,18.47
2023-04-17T19:45:02.655Z,16.50
2023-04-17T19:47:32.519Z,16.60
2023-04-17T19:50:06.884Z,17.20
2023-04-17T19:52:46.015Z,17.90
2023-04-17T19:55:16.620Z,16.80
2023-04-17T19:57:46.455Z,18.57
2023-04-17T20:00:17.952Z,20.03
2023-04-17T20:02:48.273Z,21.87
2023-04-17T20:05:19.119Z,31.90
2023-04-17T20:07:52.460Z,37.87
2023-04-17T20:10:21.530Z,30.43
2023-04-17T20:13:09.112Z,25.33
2023-04-17T20:15:57.694Z,24.80
2023-04-17T20:18:31.094Z,29.73
2023-04-17T20:20:58.793Z,22.93
2023-04-17T20:23:26.594Z,20.37
2023-04-17T20:25:56.778Z,19.60
2023-04-17T20:28:24.951Z,21.70
2023-04-17T20:30:58.033Z,23.13
2023-04-17T20:33:29.016Z,22.07
2023-04-17T20:35:59.467Z,23.37
2023-04-17T20:38:29.828Z,21.60
2023-04-17T20:40:57.245Z,26.13
2023-04-17T20:43:28.014Z,22.93
2023-04-17T20:45:58.914Z,20.80
2023-04-17T20:48:27.576Z,22.57
2023-04-17T20:50:55.167Z,25.23
2023-04-17T20:53:28.365Z,24.00
2023-04-17T20:55:57.790Z,19.53
2023-04-17T20:58:37.128Z,23.77
2023-04-17T21:01:05.612Z,25.03
2023-04-17T21:03:35.265Z,21.23
2023-04-17T21:06:06.334Z,24.20
2023-04-17T21:08:34.613Z,21.00
2023-04-17T21:11:05.591Z,21.27
2023-04-17T21:13:36.289Z,21.10
2023-04-17T21:16:04.208Z,23.30
2023-04-17T21:18:32.739Z,21.07
2023-04-17T21:21:03.678Z,20.17
2023-04-17T21:23:39.445Z,24.10
2023-04-17T21:26:07.902Z,19.77
2023-04-17T21:28:46.017Z,18.43
2023-04-17T21:31:19.357Z,19.43
2023-04-17T21:33:48.103Z,22.50
2023-04-17T21:36:23.153Z,20.53
2023-04-17T21:38:56.841Z,21.87
2023-04-17T21:41:28.296Z,18.80
2023-04-17T21:44:06.195Z,18.60
2023-04-17T21:46:42.660Z,19.03
2023-04-17T21:49:10.987Z,17.67
2023-04-17T21:52:05.234Z,18.57
2023-04-17T21:54:34.314Z,18.47
2023-04-17T21:57:03.220Z,17.80
2023-04-17T21:59:31.790Z,17.93
2023-04-17T22:02:02.694Z,16.77
2023-04-17T22:04:34.277Z,18.30
2023-04-17T22:07:02.423Z,16.30
2023-04-17T22:09:36.788Z,18.43
2023-04-17T22:12:15.613Z,16.33
2023-04-17T22:14:46.843Z,16.33
2023-04-17T22:17:19.250Z,18.33
2023-04-17T22:19:47.272Z,15.77
2023-04-17T22:22:16.996Z,15.80
2023-04-17T22:24:50.493Z,16.03
2023-04-17T22:27:21.383Z,16.13
2023-04-17T22:29:48.997Z,16.83
2023-04-17T22:32:20.587Z,17.00
2023-04-17T22:34:56.287Z,15.37
2023-04-17T22:37:29.988Z,17.97
2023-04-17T22:40:01.587Z,15.97
2023-04-17T22:42:29.511Z,15.10
2023-04-17T22:44:57.928Z,18.52
2023-04-17T22:47:26.365Z,16.37
2023-04-17T22:49:57.513Z,16.07
2023-04-17T22:52:27.976Z,16.30
2023-04-17T22:55:09.423Z,15.73
2023-04-17T22:57:40.505Z,15.13
2023-04-17T23:00:10.932Z,14.93
2023-04-17T23:02:39.356Z,15.37
2023-04-17T23:05:07.652Z,15.47
2023-04-17T23:07:35.765Z,16.87
2023-04-17T23:10:13.280Z,15.20
2023-04-17T23:12:47.213Z,16.07
2023-04-17T23:15:26.859Z,15.27
2023-04-17T23:18:00.638Z,16.50
2023-04-17T23:20:39.791Z,15.83
2023-04-17T23:23:09.539Z,17.23
2023-04-17T23:25:47.045Z,15.17
2023-04-17T23:28:15.337Z,15.07
2023-04-17T23:30:46.364Z,15.77
2023-04-17T23:33:14.846Z,15.53
2023-04-17T23:35:45.886Z,16.57
2023-04-17T23:38:17.080Z,15.77
2023-04-17T23:40:50.740Z,15.70
2023-04-17T23:43:26.736Z,14.20
2023-04-17T23:45:57.847Z,16.67
2023-04-17T23:48:29.433Z,14.03
2023-04-17T23:50:57.885Z,14.50
2023-04-17T23:53:29.845Z,13.30
2023-04-17T23:56:08.356Z,13.87
2023-04-17T23:58:39.297Z,14.13
